Sonic Adventure (DX): Time Rankings

Records: Times | Rings | Scores | Races | Bosses | Freestyle
Leaders: Times | Rings | Scores | Races | Bosses | Freestyle | Overall
Rank Player Percent Points Date
1 Gamepro011 99.1% 49 06-15-19
2 Sonicspeedruner 98.0% 112 06-15-19
3 Niczur 95.3% 267 06-15-19
4 Dashjump 94.2% 331 06-15-19
5 Jawzun 94.1% 335 06-15-19
6 DarkPolarNight 93.3% 384 06-15-19
7 drminus 91.0% 515 06-15-19
8 F-Man 91.0% 517 06-15-19
9 THC98 90.5% 546 06-15-19
10 ike6252 88.5% 659 06-15-19
11 Avento128bits 88.2% 676 06-15-19
12 francisco 87.9% 694 06-15-19
13 DarkspinesSonic 87.4% 724 06-15-19
14 ethmar 87.4% 725 06-15-19
15 Marth 87.3% 729 06-15-19
16 frankoredstrato 85.9% 810 06-15-19
17 chainchump 84.3% 903 06-15-19
18 TheRealShadnic 84.2% 905 06-15-19
19 Paragod 83.0% 977 06-15-19
20 HyperSonic7701 82.9% 983 06-15-19
21 Calfd 82.5% 1005 06-15-19
22 Coolfansonic 79.8% 1160 06-15-19
23 InferSaime 79.6% 1172 06-15-19
24 Stefan 78.3% 1248 06-15-19
25 xXMegaManXx 78.2% 1254 06-15-19
26 PfoSonic 77.7% 1280 06-15-19
27 bertin 75.9% 1383 06-15-19
28 yoshifan 75.5% 1406 06-15-19
29 Dave Cramer 73.9% 1500 06-15-19
30 RPGnutter 73.6% 1515 06-15-19
31 sonicam 72.1% 1605 06-15-19
32 Cybrax 71.7% 1626 06-15-19
33 Nim 69.5% 1754 06-15-19
34 Ring Rush 69.1% 1777 06-15-19
35 mike89 68.3% 1823 06-15-19
36 NintenDan 68.1% 1835 06-15-19
37 chaos shadow 67.9% 1845 06-15-19
38 a_moustache 67.0% 1895 06-15-19
39 Dekuboy 65.4% 1986 06-15-19
40 SkyLights 64.5% 2037 06-15-19
41 Combo 63.1% 2119 06-15-19
42 SADXTryHard 60.9% 2247 06-15-19
43 P1 Pause 60.1% 2292 06-15-19
44 WeegeeZV 59.2% 2343 06-15-19
45 Groudon199 58.3% 2398 06-15-19
46 AxlThunder 58.0% 2413 06-15-19
47 Game_Complete 58.0% 2416 06-15-19
48 Shadow Jacky 57.5% 2440 06-15-19
49 VMU Player Banned 56.9% 2479 06-15-19
50 Thorn 56.3% 2510 06-15-19
51 SB737 55.2% 2575 06-15-19
52 The Knuckles Chao 55.0% 2584 06-15-19
53 Parax 54.8% 2597 06-15-19
54 Chao_Fan 54.8% 2599 06-15-19
55 SadisticMystic 54.8% 2600 06-15-19
56 Mastakirby 54.5% 2617 06-15-19
57 KinkyCadence 54.1% 2640 06-15-19
58 LittleBigness 54.0% 2645 06-15-19
59 mauserman 54.0% 2646 06-15-19
60 OmegaDJ 53.6% 2666 06-15-19
61 Psyknux 53.6% 2669 06-15-19
62 Auriman1 53.0% 2699 06-15-19
63 magnum12 52.9% 2706 06-15-19
64 Turbos 52.5% 2730 06-15-19
65 GerbilSoft 51.8% 2768 06-15-19
66 GreatStar 51.6% 2780 06-15-19
67 Webber3000 51.1% 2808 06-15-19
68 Hipertails12 50.9% 2824 06-15-19
69 N 50.7% 2835 06-15-19
70 James_Bertolli 48.1% 2983 06-15-19
71 Cream147 47.7% 3007 06-15-19
72 welldooder64 47.1% 3040 06-15-19
73 Skylace 47.1% 3041 06-15-19
74 Omega Rafael Santos 46.9% 3050 06-15-19
75 Quartz 46.6% 3072 06-15-19
76 Diamond 46.5% 3074 06-15-19
77 Psymar 46.3% 3088 06-15-19
78 SonicWinDX 46.1% 3099 06-15-19
79 teamblackarms 45.3% 3144 06-15-19
80 Cyan Ryan 44.7% 3181 06-15-19
81 Andrea Ritsu 44.6% 3186 06-15-19
82 buddychaos0415 44.5% 3193 06-15-19
83 SilverSonic 44.1% 3213 06-15-19
84 paulie9990 43.6% 3242 06-15-19
85 SilvertheAlmighty 43.2% 3263 06-15-19
86 itsPersonnal 43.2% 3267 06-15-19
87 metanightmare22 42.4% 3309 06-15-19
88 CoEmpathy 40.9% 3398 06-15-19
89 lordmetalsonic 40.3% 3432 06-15-19
90 Arch 39.9% 3455 06-15-19
91 Termon 39.3% 3487 06-15-19
92 videogamemaster777 38.9% 3510 06-15-19
93 supersonicfan 38.6% 3529 06-15-19
94 Drakodan 38.5% 3533 06-15-19
95 Kanimayo_Jp 38.2% 3551 06-15-19
96 LilZero 37.7% 3580 06-15-19
97 FuzZerd 37.5% 3592 06-15-19
98 supersonic465 37.5% 3595 06-15-19
99 JamminX42 36.9% 3627 06-15-19
100 eggFL 36.8% 3631 06-15-19
101 Don 36.7% 3642 06-15-19
102 BigAL49 36.6% 3645 06-15-19
103 danieldude 36.1% 3673 06-15-19
104 Fr3nZy 35.3% 3718 06-15-19
105 Siavash Tazari 35.2% 3724 06-15-19
106 Cod4Scopes 34.6% 3760 06-15-19
107 f0rever_zer0 34.3% 3777 06-15-19
107 Zurggriff 34.3% 3777 06-15-19
109 Therio 33.6% 3817 06-15-19
110 Austinf 33.5% 3825 06-15-19
111 LinksDarkArrows 33.2% 3838 06-15-19
112 elecmouse101 32.5% 3883 06-15-19
113 Staf 32.1% 3902 06-15-19
114 R3FR4G 32.0% 3909 06-15-19
115 ModifiedMonkee 32.0% 3910 06-15-19
116 MiStEr_ShAoLiN 31.8% 3922 06-15-19
117 BrokenArthritis 31.8% 3924 06-15-19
118 Twilisailor 31.5% 3939 06-15-19
119 videogamer1014 31.4% 3946 06-15-19
120 Xia 30.8% 3978 06-15-19
121 AC-Tygo 30.5% 3996 06-15-19
122 welshmoose05 30.4% 4002 06-15-19
123 OddCook 29.7% 4043 06-15-19
124 Mcshuggets 29.4% 4059 06-15-19
125 The Great Lord Mick 29.4% 4060 06-15-19
126 Maxinfamily 29.1% 4076 06-15-19
127 Aitamen 29.0% 4083 06-15-19
128 joecoolgames 28.8% 4095 06-15-19
129 Matt_TY 28.5% 4114 06-15-19
130 SuperBlitzCraig 28.3% 4120 06-15-19
131 dabestgamer 28.2% 4128 06-15-19
131 Irregular Zero 28.2% 4128 06-15-19
133 SuperSonic101 27.2% 4185 06-15-19
134 Shadowthegreat 26.9% 4206 06-15-19
135 superjupi 26.8% 4208 06-15-19
136 Hunters13 26.7% 4217 06-15-19
137 thewaytodawnnn 26.5% 4226 06-15-19
138 Rolken 26.5% 4229 06-15-19
139 SaviourDC 26.1% 4252 06-15-19
140 iarebored 26.0% 4256 06-15-19
141 sonamyfan666 25.9% 4259 06-15-19
142 koinu93 25.8% 4266 06-15-19
143 Spinballwizard 25.6% 4277 06-15-19
144 SonicKnuckles 25.6% 4278 06-15-19
145 EngiNerd 24.5% 4341 06-15-19
146 adf 24.5% 4342 06-15-19
147 Megaman EXE565 23.6% 4393 06-15-19
148 The T 23.5% 4401 06-15-19
149 Sonic Singularity 22.9% 4434 06-15-19
150 Platformer 22.8% 4439 06-15-19
151 Pokemonmaster888 22.6% 4450 06-15-19
152 SeaWolf 22.5% 4454 06-15-19
153 Swift Hobo 22.2% 4471 06-15-19
154 timpkmn89 22.2% 4473 06-15-19
155 Rickyman48 21.6% 4510 06-15-19
156 Sondow 21.4% 4520 06-15-19
157 FoxBoy 20.9% 4548 06-15-19
158 Sm4sh 20.8% 4554 06-15-19
159 KitsuneYamaro 20.8% 4557 06-15-19
160 TFEC Headshot 20.5% 4569 06-15-19
161 Jerzia 20.3% 4583 06-15-19
162 Kogen Player Banned 19.9% 4608 06-15-19
163 Starlight Sable 19.8% 4614 06-15-19
164 IsisDazs 19.2% 4648 06-15-19
165 Powerjohn25 18.9% 4661 06-15-19
166 HyperSonic64 18.8% 4669 06-15-19
167 crazy1993 18.6% 4679 06-15-19
168 andres430 18.3% 4698 06-15-19
169 Swinkly 17.3% 4757 06-15-19
170 SonicU260 17.3% 4758 06-15-19
171 sonicd5 17.0% 4773 06-15-19
172 SonicAD 16.9% 4778 06-15-19
173 MPit08 16.9% 4779 06-15-19
174 iden1 16.3% 4815 06-15-19
175 iSonicKid2K 16.3% 4816 06-15-19
176 dShadow 16.1% 4826 06-15-19
177 Miles9999 15.8% 4842 06-15-19
178 Cutiefox 15.7% 4848 06-15-19
179 Chawkk 15.6% 4851 06-15-19
180 Crispian 15.5% 4862 06-15-19
181 Monkeh 15.4% 4865 06-15-19
182 DaDude 15.0% 4889 06-15-19
183 Drflash55 14.7% 4908 06-15-19
184 Badlex727 14.6% 4910 06-15-19
185 Bass 14.3% 4927 06-15-19
186 Yish 14.2% 4934 06-15-19
187 Cruizer 14.1% 4941 06-15-19
187 neaolas 14.1% 4941 06-15-19
189 Destroyer121121 14.0% 4944 06-15-19
190 zapp 14.0% 4945 06-15-19
191 UninspiredUsername 14.0% 4947 06-15-19
192 superiorsonic 13.7% 4960 06-15-19
193 gamefreak1292 13.6% 4968 06-15-19
194 Sora_yx 13.1% 4996 06-15-19
195 Cooljay 13.1% 5000 06-15-19
196 Chaos_Overlord 12.5% 5031 06-15-19
197 Valfore 12.2% 5050 06-15-19
198 Dage4Aquatic 11.8% 5070 06-15-19
199 GarnetPrincess 11.8% 5073 06-15-19
200 ShinigamiMachine 11.6% 5083 06-15-19
201 soniccoloursunleashed 11.6% 5085 06-15-19
202 Sonicsuperstar1 11.1% 5110 06-15-19
203 FocusSight64 10.7% 5134 06-15-19
204 Werey 10.7% 5136 06-15-19
205 booo95 10.6% 5140 06-15-19
206 SirTobbii 10.5% 5149 06-15-19
207 Mo Player Banned 10.4% 5151 06-15-19
208 Jua Rever 10.3% 5156 06-15-19
209 sonicspeed 10.2% 5163 06-15-19
210 Venick409 9.6% 5201 06-15-19
211 nman36 9.5% 5207 06-15-19
212 Sithwarrior26 9.4% 5208 06-15-19
213 ingx24 9.0% 5234 06-15-19
214 CyberShadow 8.9% 5241 06-15-19
215 dekki1234 8.5% 5261 06-15-19
216 Fozer 8.4% 5267 06-15-19
217 Egor305 8.3% 5275 06-15-19
218 Regano1000 8.2% 5280 06-15-19
219 Colomb_30 8.2% 5281 06-15-19
220 1stKirbyever 8.0% 5293 06-15-19
221 TimTH 7.7% 5308 06-15-19
222 nuckrieg 7.7% 5309 06-15-19
223 Brian_pso 7.6% 5312 06-15-19
224 douglas 7.3% 5330 06-15-19
225 TakaRikka 7.2% 5334 06-15-19
226 Th4tN1nj4Turtl3 7.2% 5335 06-15-19
227 Zip 7.1% 5344 06-15-19
228 Mariosonic15 6.8% 5357 06-15-19
229 wheatrich 6.8% 5361 06-15-19
230 MStitomix 6.6% 5370 06-15-19
231 HermitHelmet 6.5% 5377 06-15-19
231 ieatatsonic 6.5% 5377 06-15-19
233 niscool 6.4% 5380 06-15-19
234 Cort_pso 6.2% 5392 06-15-19
235 Got4n 6.2% 5396 06-15-19
236 Triseena 6.0% 5406 06-15-19
237 Jose_15 5.9% 5412 06-15-19
238 SuperSonicfan9595 5.7% 5424 06-15-19
239 Artie 5.7% 5425 06-15-19
239 BlankTH 5.7% 5425 06-15-19
241 Ace747 5.4% 5441 06-15-19
241 HHNNBBHHN 5.4% 5441 06-15-19
243 Richied 5.3% 5448 06-15-19
244 Paixii 5.2% 5453 06-15-19
245 Aiko 5.1% 5459 06-15-19
246 BallzeH 4.8% 5473 06-15-19
247 slade23 4.8% 5474 06-15-19
248 FSSRandomvids 4.8% 5475 06-15-19
249 PsyBorg 4.8% 5477 06-15-19
250 ArcticDragon 4.7% 5478 06-15-19
251 Mankster101 4.7% 5479 06-15-19
252 Jamixesa 4.7% 5481 06-15-19
253 BecauseWarAnvil 4.6% 5484 06-15-19
254 Nickson98 4.5% 5491 06-15-19
255 Crydio 4.5% 5493 06-15-19
256 TheUltraBlur 4.4% 5500 06-15-19
257 MarewBFN 4.2% 5512 06-15-19
257 stanski 4.2% 5512 06-15-19
259 tal39h 4.0% 5519 06-15-19
260 Blue Infamy 3.9% 5528 06-15-19
260 knuckles_sonic8 3.9% 5528 06-15-19
262 ALundstrom10 3.8% 5532 06-15-19
262 p0ker 3.8% 5532 06-15-19
264 ErrortheCucco 3.7% 5539 06-15-19
265 Rikum22 3.6% 5542 06-15-19
266 sonic1001 3.5% 5550 06-15-19
267 TheChaosEmeraIds 3.4% 5556 06-15-19
268 syco1098 3.4% 5557 06-15-19
269 AJSIV 3.3% 5559 06-15-19
270 Sonic the Hedgehod16 3.3% 5562 06-15-19
271 ASINISTERTACO 3.2% 5569 06-15-19
272 sonicfan9 3.1% 5574 06-15-19
273 themachoman202 2.9% 5585 06-15-19
274 MK 2.8% 5590 06-15-19
275 Fivavoa 2.7% 5594 06-15-19
276 Mr. Jones 2.7% 5596 06-15-19
277 BlackArmsShadow 2.7% 5597 06-15-19
278 djmat 2.7% 5598 06-15-19
279 arcfx1985 2.6% 5599 06-15-19
280 ptorflaxendrosis 2.6% 5603 06-15-19
280 Sonique Hedgehog 2.6% 5603 06-15-19
282 FlandreScarlet9999vr 2.5% 5606 06-15-19
283 Zeldocto 2.5% 5609 06-15-19
284 BeeAwwb 2.4% 5614 06-15-19
285 KaM Mark MaK 2.3% 5616 06-15-19
286 ShadouZaHejjihoggu 2.3% 5620 06-15-19
287 darkstarblaze 2.2% 5626 06-15-19
288 Sonic The Star 2.1% 5628 06-15-19
289 darkersupershadic 2.1% 5629 06-15-19
290 SpiritDragon1995 2.1% 5630 06-15-19
291 Sarger001 2.0% 5635 06-15-19
292 sonic29887 2.0% 5636 06-15-19
293 Grady219 2.0% 5638 06-15-19
294 Jawaah 1.9% 5642 06-15-19
294 shadowblast63 Player Banned 1.9% 5642 06-15-19
296 Antek 1.8% 5646 06-15-19
297 Klaus 1.8% 5648 06-15-19
298 BioShadow 1.7% 5654 06-15-19
299 Shanekilz 1.4% 5671 06-15-19
299 SkyBon 1.4% 5671 06-15-19
301 isaihtb11 1.3% 5675 06-15-19
302 OhNoes! 1.3% 5676 06-15-19
303 zaktu40 1.3% 5677 06-15-19
304 ArthurVGCP 1.3% 5679 06-15-19
305 gaara1234 1.2% 5681 06-15-19
306 S-MS32X-S 1.2% 5682 06-15-19
307 MastaToken 1.1% 5688 06-15-19
308 Mister_Slick 1.0% 5692 06-15-19
309 Sonic06Fan 1.0% 5696 06-15-19
310 Rush Hero 0.9% 5697 06-15-19
311 ChaosNexuss 0.9% 5698 06-15-19
312 oTaiIilLsS 0.8% 5703 06-15-19
312 SonicMega167 0.8% 5703 06-15-19
314 gamed00d 0.8% 5706 06-15-19
314 SilverK 0.8% 5706 06-15-19
316 Burningskull123 0.5% 5722 06-15-19
317 Heroes_Hater 0.5% 5724 06-15-19
318 Sonicontherun 0.3% 5733 06-15-19
319 antiwwe 0.2% 5739 06-15-19
320 Iwannabelink 0.2% 5741 06-15-19
321 Genuine Hedgehog 0.1% 5743 06-15-19
322 dragondragon18 0.1% 5747 06-15-19
323 SonicK100 0.1% 5748 06-15-19
324 Tyrouble 0.0% 5753 06-15-19
325 LancexExWx 0.0% 5754 06-15-19
325 neji_hyuuga 0.0% 5754 06-15-19
325 Over 0.0% 5754 06-15-19
325 sdj6707 Player Banned 0.0% 5754 06-15-19
325 Tran Sonic Fan Player Banned 0.0% 5754 06-15-19

This page is using the New Data Table System. [FUTURE]

Game ID: 3 | Category ID: 1
Hits: 2,683 | Hits This Month: 16 | DB Calls: 25 | Mem Usage: 5.88 MB | Time: 0.40s | Printable

The Sonic Center v3.9
Copyright 2003-2011 by The Sonic Center Team.